sensor_id;sensor_type;location;lat;lon;timestamp;temperature;humidity
20714;DHT22;10518;50.742;4.226;2023-07-08T00:00:12;21.00;99.90
20714;DHT22;10518;50.742;4.226;2023-07-08T00:02:37;21.00;99.90
20714;DHT22;10518;50.742;4.226;2023-07-08T00:05:03;21.10;99.90
20714;DHT22;10518;50.742;4.226;2023-07-08T00:07:29;21.10;99.90
20714;DHT22;10518;50.742;4.226;2023-07-08T00:09:54;21.10;99.90
20714;DHT22;10518;50.742;4.226;2023-07-08T00:12:20;21.10;99.90
20714;DHT22;10518;50.742;4.226;2023-07-08T00:14:45;21.10;99.90
20714;DHT22;10518;50.742;4.226;2023-07-08T00:17:12;21.10;99.90
20714;DHT22;10518;50.742;4.226;2023-07-08T00:19:38;21.00;99.90
20714;DHT22;10518;50.742;4.226;2023-07-08T00:22:14;21.00;99.90
20714;DHT22;10518;50.742;4.226;2023-07-08T00:24:42;20.90;99.90
20714;DHT22;10518;50.742;4.226;2023-07-08T00:27:11;20.90;99.90
20714;DHT22;10518;50.742;4.226;2023-07-08T00:29:39;20.90;99.90
20714;DHT22;10518;50.742;4.226;2023-07-08T00:32:14;20.90;99.90
20714;DHT22;10518;50.742;4.226;2023-07-08T00:34:40;20.70;99.90
20714;DHT22;10518;50.742;4.226;2023-07-08T00:37:10;20.70;99.90
20714;DHT22;10518;50.742;4.226;2023-07-08T00:39:36;20.70;99.90
20714;DHT22;10518;50.742;4.226;2023-07-08T00:42:10;20.60;99.90
20714;DHT22;10518;50.742;4.226;2023-07-08T00:44:37;20.60;99.90
20714;DHT22;10518;50.742;4.226;2023-07-08T00:47:08;20.50;99.90
20714;DHT22;10518;50.742;4.226;2023-07-08T00:52:17;20.50;99.90
20714;DHT22;10518;50.742;4.226;2023-07-08T00:54:43;20.40;99.90
20714;DHT22;10518;50.742;4.226;2023-07-08T00:57:09;20.30;99.90
20714;DHT22;10518;50.742;4.226;2023-07-08T00:59:40;20.30;99.90
20714;DHT22;10518;50.742;4.226;2023-07-08T01:02:09;20.20;99.90
20714;DHT22;10518;50.742;4.226;2023-07-08T01:04:58;20.10;99.90
20714;DHT22;10518;50.742;4.226;2023-07-08T01:07:26;20.10;99.90
20714;DHT22;10518;50.742;4.226;2023-07-08T01:10:09;20.10;99.90
20714;DHT22;10518;50.742;4.226;2023-07-08T01:12:44;20.00;99.90
20714;DHT22;10518;50.742;4.226;2023-07-08T01:15:11;19.90;99.90
20714;DHT22;10518;50.742;4.226;2023-07-08T01:17:38;19.90;99.90
20714;DHT22;10518;50.742;4.226;2023-07-08T01:20:06;19.80;99.90
20714;DHT22;10518;50.742;4.226;2023-07-08T01:22:36;19.80;99.90
20714;DHT22;10518;50.742;4.226;2023-07-08T01:25:03;19.80;99.90
20714;DHT22;10518;50.742;4.226;2023-07-08T01:27:31;19.70;99.90
20714;DHT22;10518;50.742;4.226;2023-07-08T01:29:59;19.70;99.90
20714;DHT22;10518;50.742;4.226;2023-07-08T01:32:25;19.70;99.90
20714;DHT22;10518;50.742;4.226;2023-07-08T01:34:56;19.60;99.90
20714;DHT22;10518;50.742;4.226;2023-07-08T01:37:38;19.60;99.90
20714;DHT22;10518;50.742;4.226;2023-07-08T01:42:40;19.60;99.90
20714;DHT22;10518;50.742;4.226;2023-07-08T01:45:14;19.50;99.90
20714;DHT22;10518;50.742;4.226;2023-07-08T01:47:41;19.50;99.90
20714;DHT22;10518;50.742;4.226;2023-07-08T01:50:09;19.50;99.90
20714;DHT22;10518;50.742;4.226;2023-07-08T01:52:36;19.50;99.90
20714;DHT22;10518;50.742;4.226;2023-07-08T01:55:02;19.50;99.90
20714;DHT22;10518;50.742;4.226;2023-07-08T01:57:28;19.50;99.90
20714;DHT22;10518;50.742;4.226;2023-07-08T01:59:54;19.50;99.90
20714;DHT22;10518;50.742;4.226;2023-07-08T02:02:19;19.40;99.90
20714;DHT22;10518;50.742;4.226;2023-07-08T02:04:45;19.40;99.90
20714;DHT22;10518;50.742;4.226;2023-07-08T02:07:10;19.40;99.90
20714;DHT22;10518;50.742;4.226;2023-07-08T02:09:36;19.30;99.90
20714;DHT22;10518;50.742;4.226;2023-07-08T02:12:01;19.30;99.90
20714;DHT22;10518;50.742;4.226;2023-07-08T02:14:27;19.40;99.90
20714;DHT22;10518;50.742;4.226;2023-07-08T02:16:52;19.30;99.90
20714;DHT22;10518;50.742;4.226;2023-07-08T02:19:19;19.30;99.90
20714;DHT22;10518;50.742;4.226;2023-07-08T02:21:44;19.30;99.90
20714;DHT22;10518;50.742;4.226;2023-07-08T02:24:10;19.30;99.90
20714;DHT22;10518;50.742;4.226;2023-07-08T02:26:36;19.20;99.90
20714;DHT22;10518;50.742;4.226;2023-07-08T02:29:01;19.20;99.90
20714;DHT22;10518;50.742;4.226;2023-07-08T02:31:27;19.10;99.90
20714;DHT22;10518;50.742;4.226;2023-07-08T02:33:53;19.10;99.90
20714;DHT22;10518;50.742;4.226;2023-07-08T02:36:19;19.00;99.90
20714;DHT22;10518;50.742;4.226;2023-07-08T02:38:45;19.00;99.90
20714;DHT22;10518;50.742;4.226;2023-07-08T02:41:10;19.00;99.90
20714;DHT22;10518;50.742;4.226;2023-07-08T02:43:37;18.90;99.90
20714;DHT22;10518;50.742;4.226;2023-07-08T02:46:03;18.90;99.90
20714;DHT22;10518;50.742;4.226;2023-07-08T02:48:28;18.80;99.90
20714;DHT22;10518;50.742;4.226;2023-07-08T02:51:01;18.80;99.90
20714;DHT22;10518;50.742;4.226;2023-07-08T02:53:27;18.90;99.90
20714;DHT22;10518;50.742;4.226;2023-07-08T02:55:53;19.00;99.90
20714;DHT22;10518;50.742;4.226;2023-07-08T02:58:18;18.90;99.90
20714;DHT22;10518;50.742;4.226;2023-07-08T03:00:44;18.90;99.90
20714;DHT22;10518;50.742;4.226;2023-07-08T03:03:09;18.80;99.90
20714;DHT22;10518;50.742;4.226;2023-07-08T03:05:35;18.90;99.90
20714;DHT22;10518;50.742;4.226;2023-07-08T03:08:01;18.80;99.90
20714;DHT22;10518;50.742;4.226;2023-07-08T03:10:27;18.90;99.90
20714;DHT22;10518;50.742;4.226;2023-07-08T03:12:52;18.90;99.90
20714;DHT22;10518;50.742;4.226;2023-07-08T03:15:18;18.90;99.90
20714;DHT22;10518;50.742;4.226;2023-07-08T03:17:44;18.90;99.90
20714;DHT22;10518;50.742;4.226;2023-07-08T03:20:10;18.90;99.90
20714;DHT22;10518;50.742;4.226;2023-07-08T03:22:37;19.00;99.90
20714;DHT22;10518;50.742;4.226;2023-07-08T03:25:02;18.90;99.90
20714;DHT22;10518;50.742;4.226;2023-07-08T03:27:28;18.90;99.90
20714;DHT22;10518;50.742;4.226;2023-07-08T03:29:54;18.90;99.90
20714;DHT22;10518;50.742;4.226;2023-07-08T03:32:19;18.90;99.90
20714;DHT22;10518;50.742;4.226;2023-07-08T03:34:45;18.90;99.90
20714;DHT22;10518;50.742;4.226;2023-07-08T03:37:10;18.80;99.90
20714;DHT22;10518;50.742;4.226;2023-07-08T03:39:36;18.80;99.90
20714;DHT22;10518;50.742;4.226;2023-07-08T03:42:02;18.80;99.90
20714;DHT22;10518;50.742;4.226;2023-07-08T03:44:29;18.80;99.90
20714;DHT22;10518;50.742;4.226;2023-07-08T03:46:55;18.80;99.90
20714;DHT22;10518;50.742;4.226;2023-07-08T03:49:22;18.80;99.90
20714;DHT22;10518;50.742;4.226;2023-07-08T03:51:51;18.80;99.90
20714;DHT22;10518;50.742;4.226;2023-07-08T03:54:18;18.70;99.90
20714;DHT22;10518;50.742;4.226;2023-07-08T03:56:44;18.70;99.90
20714;DHT22;10518;50.742;4.226;2023-07-08T03:59:09;18.70;99.90
20714;DHT22;10518;50.742;4.226;2023-07-08T04:01:35;18.70;99.90
20714;DHT22;10518;50.742;4.226;2023-07-08T04:04:01;18.70;99.90
20714;DHT22;10518;50.742;4.226;2023-07-08T04:06:27;18.70;99.90
20714;DHT22;10518;50.742;4.226;2023-07-08T04:08:56;18.80;99.90
20714;DHT22;10518;50.742;4.226;2023-07-08T04:11:23;18.90;99.90
20714;DHT22;10518;50.742;4.226;2023-07-08T04:13:49;18.80;99.90
20714;DHT22;10518;50.742;4.226;2023-07-08T04:16:28;18.80;99.90
20714;DHT22;10518;50.742;4.226;2023-07-08T04:18:55;18.80;99.90
20714;DHT22;10518;50.742;4.226;2023-07-08T04:21:22;18.80;99.90
20714;DHT22;10518;50.742;4.226;2023-07-08T04:23:50;18.80;99.90
20714;DHT22;10518;50.742;4.226;2023-07-08T04:26:16;18.90;99.90
20714;DHT22;10518;50.742;4.226;2023-07-08T04:28:44;18.90;99.90
20714;DHT22;10518;50.742;4.226;2023-07-08T04:31:09;18.90;99.90
20714;DHT22;10518;50.742;4.226;2023-07-08T04:33:35;18.80;99.90
20714;DHT22;10518;50.742;4.226;2023-07-08T04:36:00;18.90;99.90
20714;DHT22;10518;50.742;4.226;2023-07-08T04:38:26;19.00;99.90
20714;DHT22;10518;50.742;4.226;2023-07-08T04:40:53;19.00;99.90
20714;DHT22;10518;50.742;4.226;2023-07-08T04:43:20;19.10;99.90
20714;DHT22;10518;50.742;4.226;2023-07-08T04:45:48;19.20;99.90
20714;DHT22;10518;50.742;4.226;2023-07-08T04:48:19;19.20;99.90
20714;DHT22;10518;50.742;4.226;2023-07-08T04:50:48;19.40;99.90
20714;DHT22;10518;50.742;4.226;2023-07-08T04:53:14;19.40;99.90
20714;DHT22;10518;50.742;4.226;2023-07-08T04:56:07;19.40;99.90
20714;DHT22;10518;50.742;4.226;2023-07-08T04:58:32;19.50;99.90
20714;DHT22;10518;50.742;4.226;2023-07-08T05:00:58;19.60;99.90
20714;DHT22;10518;50.742;4.226;2023-07-08T05:03:23;19.60;99.90
20714;DHT22;10518;50.742;4.226;2023-07-08T05:05:49;19.80;99.90
20714;DHT22;10518;50.742;4.226;2023-07-08T05:08:14;19.80;99.90
20714;DHT22;10518;50.742;4.226;2023-07-08T05:10:40;20.00;99.90
20714;DHT22;10518;50.742;4.226;2023-07-08T05:13:06;20.20;99.90
20714;DHT22;10518;50.742;4.226;2023-07-08T05:15:31;20.40;99.90
20714;DHT22;10518;50.742;4.226;2023-07-08T05:17:57;20.60;99.90
20714;DHT22;10518;50.742;4.226;2023-07-08T05:20:22;20.80;99.90
20714;DHT22;10518;50.742;4.226;2023-07-08T05:22:48;21.10;99.90
20714;DHT22;10518;50.742;4.226;2023-07-08T05:25:14;21.40;99.90
20714;DHT22;10518;50.742;4.226;2023-07-08T05:27:40;21.50;99.90
20714;DHT22;10518;50.742;4.226;2023-07-08T05:30:08;21.70;99.90
20714;DHT22;10518;50.742;4.226;2023-07-08T05:32:37;21.90;99.90
20714;DHT22;10518;50.742;4.226;2023-07-08T05:35:02;22.40;99.90
20714;DHT22;10518;50.742;4.226;2023-07-08T05:37:28;22.80;99.90
20714;DHT22;10518;50.742;4.226;2023-07-08T05:39:55;23.10;99.90
20714;DHT22;10518;50.742;4.226;2023-07-08T05:42:21;23.80;99.90
20714;DHT22;10518;50.742;4.226;2023-07-08T05:44:47;24.80;99.90
20714;DHT22;10518;50.742;4.226;2023-07-08T05:47:13;25.90;99.90
20714;DHT22;10518;50.742;4.226;2023-07-08T05:49:39;27.10;99.90
20714;DHT22;10518;50.742;4.226;2023-07-08T05:52:05;28.10;99.90
20714;DHT22;10518;50.742;4.226;2023-07-08T05:54:36;29.00;99.90
20714;DHT22;10518;50.742;4.226;2023-07-08T05:57:02;29.60;99.90
20714;DHT22;10518;50.742;4.226;2023-07-08T05:59:28;29.80;99.90
20714;DHT22;10518;50.742;4.226;2023-07-08T06:01:53;30.00;99.90
20714;DHT22;10518;50.742;4.226;2023-07-08T06:04:19;29.90;99.90
20714;DHT22;10518;50.742;4.226;2023-07-08T06:06:45;30.60;99.90
20714;DHT22;10518;50.742;4.226;2023-07-08T06:09:10;31.20;99.90
20714;DHT22;10518;50.742;4.226;2023-07-08T06:11:36;31.80;99.90
20714;DHT22;10518;50.742;4.226;2023-07-08T06:14:01;32.50;99.90
20714;DHT22;10518;50.742;4.226;2023-07-08T06:16:28;33.10;99.90
20714;DHT22;10518;50.742;4.226;2023-07-08T06:18:55;33.50;99.90
20714;DHT22;10518;50.742;4.226;2023-07-08T06:21:21;33.80;99.90
20714;DHT22;10518;50.742;4.226;2023-07-08T06:23:46;33.90;99.90
20714;DHT22;10518;50.742;4.226;2023-07-08T06:26:12;34.00;99.90
20714;DHT22;10518;50.742;4.226;2023-07-08T06:28:37;34.30;99.90
20714;DHT22;10518;50.742;4.226;2023-07-08T06:31:03;33.50;99.90
20714;DHT22;10518;50.742;4.226;2023-07-08T06:33:28;33.80;99.90
20714;DHT22;10518;50.742;4.226;2023-07-08T06:35:54;34.70;99.90
20714;DHT22;10518;50.742;4.226;2023-07-08T06:38:19;35.00;99.90
20714;DHT22;10518;50.742;4.226;2023-07-08T06:40:45;36.00;99.90
20714;DHT22;10518;50.742;4.226;2023-07-08T06:43:11;36.50;99.10
20714;DHT22;10518;50.742;4.226;2023-07-08T06:45:36;37.00;96.90
20714;DHT22;10518;50.742;4.226;2023-07-08T06:48:02;37.40;96.10
20714;DHT22;10518;50.742;4.226;2023-07-08T06:50:28;37.60;94.50
20714;DHT22;10518;50.742;4.226;2023-07-08T06:52:53;37.70;94.30
20714;DHT22;10518;50.742;4.226;2023-07-08T06:55:19;38.00;93.20
20714;DHT22;10518;50.742;4.226;2023-07-08T06:57:44;37.80;93.00
20714;DHT22;10518;50.742;4.226;2023-07-08T07:00:11;37.90;93.00
20714;DHT22;10518;50.742;4.226;2023-07-08T07:02:37;37.90;92.60
20714;DHT22;10518;50.742;4.226;2023-07-08T07:05:03;37.80;92.60
20714;DHT22;10518;50.742;4.226;2023-07-08T07:07:29;37.70;92.80
20714;DHT22;10518;50.742;4.226;2023-07-08T07:09:56;38.00;91.60
20714;DHT22;10518;50.742;4.226;2023-07-08T07:12:25;38.20;91.20
20714;DHT22;10518;50.742;4.226;2023-07-08T07:14:51;38.00;90.80
20714;DHT22;10518;50.742;4.226;2023-07-08T07:17:20;38.00;91.50
20714;DHT22;10518;50.742;4.226;2023-07-08T07:19:46;38.10;91.20
20714;DHT22;10518;50.742;4.226;2023-07-08T07:22:11;37.80;92.00
20714;DHT22;10518;50.742;4.226;2023-07-08T07:24:37;37.70;91.00
20714;DHT22;10518;50.742;4.226;2023-07-08T07:27:02;37.60;92.00
20714;DHT22;10518;50.742;4.226;2023-07-08T07:29:37;38.10;90.60
20714;DHT22;10518;50.742;4.226;2023-07-08T07:32:03;38.10;90.30
20714;DHT22;10518;50.742;4.226;2023-07-08T07:34:29;38.10;90.30
20714;DHT22;10518;50.742;4.226;2023-07-08T07:36:54;38.20;91.20
20714;DHT22;10518;50.742;4.226;2023-07-08T07:39:20;38.50;90.50
20714;DHT22;10518;50.742;4.226;2023-07-08T07:41:45;38.90;91.00
20714;DHT22;10518;50.742;4.226;2023-07-08T07:44:11;39.20;90.40
20714;DHT22;10518;50.742;4.226;2023-07-08T07:46:36;39.20;90.30
20714;DHT22;10518;50.742;4.226;2023-07-08T07:49:02;39.80;87.50
20714;DHT22;10518;50.742;4.226;2023-07-08T07:51:27;40.10;87.20
20714;DHT22;10518;50.742;4.226;2023-07-08T07:53:53;40.10;87.30
20714;DHT22;10518;50.742;4.226;2023-07-08T07:56:19;40.20;86.00
20714;DHT22;10518;50.742;4.226;2023-07-08T07:58:44;40.50;85.30
20714;DHT22;10518;50.742;4.226;2023-07-08T08:01:10;40.40;81.60
20714;DHT22;10518;50.742;4.226;2023-07-08T08:03:38;40.30;80.70
20714;DHT22;10518;50.742;4.226;2023-07-08T08:06:04;40.00;82.50
20714;DHT22;10518;50.742;4.226;2023-07-08T08:08:30;39.80;80.90
20714;DHT22;10518;50.742;4.226;2023-07-08T08:10:55;39.90;83.00
20714;DHT22;10518;50.742;4.226;2023-07-08T08:13:21;40.00;82.90
20714;DHT22;10518;50.742;4.226;2023-07-08T08:15:46;39.40;83.50
20714;DHT22;10518;50.742;4.226;2023-07-08T08:18:12;39.40;81.50
20714;DHT22;10518;50.742;4.226;2023-07-08T08:20:37;38.90;83.50
20714;DHT22;10518;50.742;4.226;2023-07-08T08:23:05;38.70;82.00
20714;DHT22;10518;50.742;4.226;2023-07-08T08:25:31;38.00;82.00
20714;DHT22;10518;50.742;4.226;2023-07-08T08:27:57;37.80;80.90
20714;DHT22;10518;50.742;4.226;2023-07-08T08:30:23;37.70;80.40
20714;DHT22;10518;50.742;4.226;2023-07-08T08:32:48;37.10;83.10
20714;DHT22;10518;50.742;4.226;2023-07-08T08:35:14;36.20;84.50
20714;DHT22;10518;50.742;4.226;2023-07-08T08:37:39;35.50;85.30
20714;DHT22;10518;50.742;4.226;2023-07-08T08:40:06;35.20;87.20
20714;DHT22;10518;50.742;4.226;2023-07-08T08:42:42;34.90;84.80
20714;DHT22;10518;50.742;4.226;2023-07-08T08:45:16;34.70;85.40
20714;DHT22;10518;50.742;4.226;2023-07-08T08:47:44;34.20;87.20
20714;DHT22;10518;50.742;4.226;2023-07-08T08:50:28;34.10;88.70
20714;DHT22;10518;50.742;4.226;2023-07-08T08:52:55;33.80;87.60
20714;DHT22;10518;50.742;4.226;2023-07-08T08:55:22;33.70;88.30
20714;DHT22;10518;50.742;4.226;2023-07-08T09:03:13;33.20;91.50
20714;DHT22;10518;50.742;4.226;2023-07-08T09:05:40;33.00;91.30
20714;DHT22;10518;50.742;4.226;2023-07-08T09:08:13;32.90;90.60
20714;DHT22;10518;50.742;4.226;2023-07-08T09:13:06;32.80;90.60
20714;DHT22;10518;50.742;4.226;2023-07-08T09:15:32;32.90;90.30
20714;DHT22;10518;50.742;4.226;2023-07-08T09:18:10;32.70;90.30
20714;DHT22;10518;50.742;4.226;2023-07-08T09:20:38;32.80;90.60
20714;DHT22;10518;50.742;4.226;2023-07-08T09:25:37;32.40;92.90
20714;DHT22;10518;50.742;4.226;2023-07-08T09:28:07;32.20;93.00
20714;DHT22;10518;50.742;4.226;2023-07-08T09:30:33;32.20;92.90
20714;DHT22;10518;50.742;4.226;2023-07-08T09:33:03;32.60;91.40
20714;DHT22;10518;50.742;4.226;2023-07-08T09:35:41;32.90;91.10
20714;DHT22;10518;50.742;4.226;2023-07-08T09:38:22;32.80;91.30
20714;DHT22;10518;50.742;4.226;2023-07-08T09:40:50;32.30;92.00
20714;DHT22;10518;50.742;4.226;2023-07-08T09:43:34;32.10;91.60
20714;DHT22;10518;50.742;4.226;2023-07-08T09:46:04;32.00;92.80
20714;DHT22;10518;50.742;4.226;2023-07-08T09:48:34;32.00;91.10
20714;DHT22;10518;50.742;4.226;2023-07-08T09:51:00;31.90;91.60
20714;DHT22;10518;50.742;4.226;2023-07-08T09:53:26;31.90;90.60
20714;DHT22;10518;50.742;4.226;2023-07-08T09:55:53;32.20;91.50
20714;DHT22;10518;50.742;4.226;2023-07-08T09:58:35;32.50;91.10
20714;DHT22;10518;50.742;4.226;2023-07-08T10:01:23;32.40;90.70
20714;DHT22;10518;50.742;4.226;2023-07-08T10:03:49;32.30;92.30
20714;DHT22;10518;50.742;4.226;2023-07-08T10:06:27;32.10;92.10
20714;DHT22;10518;50.742;4.226;2023-07-08T10:08:54;32.30;92.00
20714;DHT22;10518;50.742;4.226;2023-07-08T10:11:28;32.00;92.10
20714;DHT22;10518;50.742;4.226;2023-07-08T10:14:07;32.30;92.80
20714;DHT22;10518;50.742;4.226;2023-07-08T10:16:35;32.60;92.70
20714;DHT22;10518;50.742;4.226;2023-07-08T10:19:01;32.60;92.00
20714;DHT22;10518;50.742;4.226;2023-07-08T10:26:58;32.40;92.60
20714;DHT22;10518;50.742;4.226;2023-07-08T10:32:28;32.40;92.30
20714;DHT22;10518;50.742;4.226;2023-07-08T10:37:59;32.40;92.80
20714;DHT22;10518;50.742;4.226;2023-07-08T10:41:46;32.40;92.20
20714;DHT22;10518;50.742;4.226;2023-07-08T10:44:05;33.00;91.10
20714;DHT22;10518;50.742;4.226;2023-07-08T11:02:39;32.00;92.30
20714;DHT22;10518;50.742;4.226;2023-07-08T11:05:31;32.40;92.70
20714;DHT22;10518;50.742;4.226;2023-07-08T11:08:50;32.30;92.90
20714;DHT22;10518;50.742;4.226;2023-07-08T11:11:06;32.10;92.50
20714;DHT22;10518;50.742;4.226;2023-07-08T11:13:38;32.30;93.20
20714;DHT22;10518;50.742;4.226;2023-07-08T11:16:15;32.10;93.30
20714;DHT22;10518;50.742;4.226;2023-07-08T11:19:05;32.30;93.80
20714;DHT22;10518;50.742;4.226;2023-07-08T11:21:53;32.50;93.00
20714;DHT22;10518;50.742;4.226;2023-07-08T11:24:35;32.60;93.80
20714;DHT22;10518;50.742;4.226;2023-07-08T11:27:25;32.50;93.00
20714;DHT22;10518;50.742;4.226;2023-07-08T11:32:24;32.60;92.20
20714;DHT22;10518;50.742;4.226;2023-07-08T11:34:52;32.70;94.20
20714;DHT22;10518;50.742;4.226;2023-07-08T11:37:19;32.90;94.70
20714;DHT22;10518;50.742;4.226;2023-07-08T11:39:53;32.90;93.70
20714;DHT22;10518;50.742;4.226;2023-07-08T11:42:37;33.20;94.80
20714;DHT22;10518;50.742;4.226;2023-07-08T11:47:45;34.10;92.20
20714;DHT22;10518;50.742;4.226;2023-07-08T11:50:39;34.00;93.60
20714;DHT22;10518;50.742;4.226;2023-07-08T11:53:11;33.80;95.10
20714;DHT22;10518;50.742;4.226;2023-07-08T11:55:38;33.40;94.60
20714;DHT22;10518;50.742;4.226;2023-07-08T11:58:13;33.20;94.20
20714;DHT22;10518;50.742;4.226;2023-07-08T12:01:05;33.30;95.00
20714;DHT22;10518;50.742;4.226;2023-07-08T12:03:51;33.20;95.70
20714;DHT22;10518;50.742;4.226;2023-07-08T12:08:58;33.80;96.20
20714;DHT22;10518;50.742;4.226;2023-07-08T12:11:28;34.00;96.10
20714;DHT22;10518;50.742;4.226;2023-07-08T12:13:59;34.40;94.60
20714;DHT22;10518;50.742;4.226;2023-07-08T12:16:27;34.70;93.40
20714;DHT22;10518;50.742;4.226;2023-07-08T12:18:54;34.80;93.80
20714;DHT22;10518;50.742;4.226;2023-07-08T12:21:22;34.70;94.90
20714;DHT22;10518;50.742;4.226;2023-07-08T12:23:48;34.90;95.10
20714;DHT22;10518;50.742;4.226;2023-07-08T12:26:15;35.00;96.80
20714;DHT22;10518;50.742;4.226;2023-07-08T12:28:42;35.10;95.30
20714;DHT22;10518;50.742;4.226;2023-07-08T12:31:20;35.20;94.30
20714;DHT22;10518;50.742;4.226;2023-07-08T12:33:46;34.90;95.70
20714;DHT22;10518;50.742;4.226;2023-07-08T12:36:21;35.00;94.50
20714;DHT22;10518;50.742;4.226;2023-07-08T12:38:50;34.80;97.00
20714;DHT22;10518;50.742;4.226;2023-07-08T12:41:24;35.10;96.30
20714;DHT22;10518;50.742;4.226;2023-07-08T12:43:50;35.10;95.10
20714;DHT22;10518;50.742;4.226;2023-07-08T12:46:19;35.30;97.50
20714;DHT22;10518;50.742;4.226;2023-07-08T12:48:45;35.40;97.80
20714;DHT22;10518;50.742;4.226;2023-07-08T12:51:19;35.30;98.00
20714;DHT22;10518;50.742;4.226;2023-07-08T12:53:47;35.40;98.40
20714;DHT22;10518;50.742;4.226;2023-07-08T12:56:12;35.50;99.10
20714;DHT22;10518;50.742;4.226;2023-07-08T12:58:44;35.50;98.40
20714;DHT22;10518;50.742;4.226;2023-07-08T13:01:19;35.60;98.80
20714;DHT22;10518;50.742;4.226;2023-07-08T13:03:48;35.60;98.50
20714;DHT22;10518;50.742;4.226;2023-07-08T13:06:17;35.40;99.10
20714;DHT22;10518;50.742;4.226;2023-07-08T13:08:44;35.20;99.60
20714;DHT22;10518;50.742;4.226;2023-07-08T13:11:14;34.70;99.70
20714;DHT22;10518;50.742;4.226;2023-07-08T13:13:48;34.30;99.90
20714;DHT22;10518;50.742;4.226;2023-07-08T13:16:15;34.10;99.90
20714;DHT22;10518;50.742;4.226;2023-07-08T13:18:42;33.90;99.90
20714;DHT22;10518;50.742;4.226;2023-07-08T13:21:11;33.80;99.70
20714;DHT22;10518;50.742;4.226;2023-07-08T13:23:38;33.20;98.70
20714;DHT22;10518;50.742;4.226;2023-07-08T13:26:18;32.90;97.60
20714;DHT22;10518;50.742;4.226;2023-07-08T13:28:44;32.40;97.90
20714;DHT22;10518;50.742;4.226;2023-07-08T13:31:22;31.90;97.90
20714;DHT22;10518;50.742;4.226;2023-07-08T13:33:52;32.10;98.70
20714;DHT22;10518;50.742;4.226;2023-07-08T13:36:42;32.50;98.90
20714;DHT22;10518;50.742;4.226;2023-07-08T13:39:14;32.70;98.10
20714;DHT22;10518;50.742;4.226;2023-07-08T13:41:44;32.80;97.30
20714;DHT22;10518;50.742;4.226;2023-07-08T13:44:10;32.80;97.00
20714;DHT22;10518;50.742;4.226;2023-07-08T13:46:38;32.60;97.80
20714;DHT22;10518;50.742;4.226;2023-07-08T13:49:19;32.30;98.20
20714;DHT22;10518;50.742;4.226;2023-07-08T13:51:45;32.30;98.90
20714;DHT22;10518;50.742;4.226;2023-07-08T13:56:46;32.50;99.90
20714;DHT22;10518;50.742;4.226;2023-07-08T13:59:21;32.90;99.90
20714;DHT22;10518;50.742;4.226;2023-07-08T14:01:47;33.00;99.90
20714;DHT22;10518;50.742;4.226;2023-07-08T14:04:16;33.40;99.90
20714;DHT22;10518;50.742;4.226;2023-07-08T14:06:43;33.20;99.90
20714;DHT22;10518;50.742;4.226;2023-07-08T14:09:16;33.10;99.90
20714;DHT22;10518;50.742;4.226;2023-07-08T14:11:42;32.90;99.90
20714;DHT22;10518;50.742;4.226;2023-07-08T14:14:09;32.90;99.90
20714;DHT22;10518;50.742;4.226;2023-07-08T14:16:37;33.20;99.90
20714;DHT22;10518;50.742;4.226;2023-07-08T14:19:05;33.30;99.80
20714;DHT22;10518;50.742;4.226;2023-07-08T14:21:33;33.40;99.90
20714;DHT22;10518;50.742;4.226;2023-07-08T14:24:00;33.80;99.90
20714;DHT22;10518;50.742;4.226;2023-07-08T14:26:25;34.00;99.90
20714;DHT22;10518;50.742;4.226;2023-07-08T14:28:51;34.20;99.60
20714;DHT22;10518;50.742;4.226;2023-07-08T14:31:21;33.80;99.90
20714;DHT22;10518;50.742;4.226;2023-07-08T14:33:47;33.40;99.90
20714;DHT22;10518;50.742;4.226;2023-07-08T14:36:13;33.20;99.90
20714;DHT22;10518;50.742;4.226;2023-07-08T14:38:40;33.60;99.90
20714;DHT22;10518;50.742;4.226;2023-07-08T14:41:06;33.40;99.90
20714;DHT22;10518;50.742;4.226;2023-07-08T14:43:33;33.70;99.90
20714;DHT22;10518;50.742;4.226;2023-07-08T14:46:01;33.80;99.90
20714;DHT22;10518;50.742;4.226;2023-07-08T14:48:32;33.80;99.90
20714;DHT22;10518;50.742;4.226;2023-07-08T14:50:58;33.70;99.90
20714;DHT22;10518;50.742;4.226;2023-07-08T14:53:24;33.50;99.90
20714;DHT22;10518;50.742;4.226;2023-07-08T14:55:55;33.30;99.90
20714;DHT22;10518;50.742;4.226;2023-07-08T14:58:24;33.20;99.90
20714;DHT22;10518;50.742;4.226;2023-07-08T15:00:51;33.00;99.90
20714;DHT22;10518;50.742;4.226;2023-07-08T15:03:17;32.90;99.90
20714;DHT22;10518;50.742;4.226;2023-07-08T15:05:43;32.90;99.90
20714;DHT22;10518;50.742;4.226;2023-07-08T15:08:09;32.90;99.90
20714;DHT22;10518;50.742;4.226;2023-07-08T15:10:36;33.00;99.90
20714;DHT22;10518;50.742;4.226;2023-07-08T15:13:02;33.00;99.90
20714;DHT22;10518;50.742;4.226;2023-07-08T15:15:33;33.00;99.90
20714;DHT22;10518;50.742;4.226;2023-07-08T15:18:02;32.90;99.90
20714;DHT22;10518;50.742;4.226;2023-07-08T15:20:31;32.70;99.90
20714;DHT22;10518;50.742;4.226;2023-07-08T15:22:57;32.80;99.90
20714;DHT22;10518;50.742;4.226;2023-07-08T15:25:23;33.10;99.90
20714;DHT22;10518;50.742;4.226;2023-07-08T15:27:53;33.40;99.90
20714;DHT22;10518;50.742;4.226;2023-07-08T15:30:22;33.40;99.90
20714;DHT22;10518;50.742;4.226;2023-07-08T15:32:48;33.50;99.90
20714;DHT22;10518;50.742;4.226;2023-07-08T15:35:19;33.40;99.90
20714;DHT22;10518;50.742;4.226;2023-07-08T15:37:46;33.40;99.90
20714;DHT22;10518;50.742;4.226;2023-07-08T15:40:16;33.50;99.90
20714;DHT22;10518;50.742;4.226;2023-07-08T15:42:43;33.40;99.90
20714;DHT22;10518;50.742;4.226;2023-07-08T15:47:38;33.50;99.90
20714;DHT22;10518;50.742;4.226;2023-07-08T15:50:12;33.20;99.90
20714;DHT22;10518;50.742;4.226;2023-07-08T15:52:38;33.30;99.90
20714;DHT22;10518;50.742;4.226;2023-07-08T15:55:05;33.20;99.90
20714;DHT22;10518;50.742;4.226;2023-07-08T15:57:32;33.30;99.90
20714;DHT22;10518;50.742;4.226;2023-07-08T15:59:58;33.20;99.90
20714;DHT22;10518;50.742;4.226;2023-07-08T16:02:28;33.50;99.90
20714;DHT22;10518;50.742;4.226;2023-07-08T16:04:55;33.50;99.90
20714;DHT22;10518;50.742;4.226;2023-07-08T16:07:20;33.50;99.90
20714;DHT22;10518;50.742;4.226;2023-07-08T16:09:46;33.60;99.90
20714;DHT22;10518;50.742;4.226;2023-07-08T16:12:13;33.40;99.90
20714;DHT22;10518;50.742;4.226;2023-07-08T16:14:42;33.40;99.90
20714;DHT22;10518;50.742;4.226;2023-07-08T16:17:09;33.30;99.90
20714;DHT22;10518;50.742;4.226;2023-07-08T16:19:35;33.30;99.90
20714;DHT22;10518;50.742;4.226;2023-07-08T16:22:01;33.40;99.90
20714;DHT22;10518;50.742;4.226;2023-07-08T16:24:27;33.50;99.90
20714;DHT22;10518;50.742;4.226;2023-07-08T16:26:53;33.50;99.90
20714;DHT22;10518;50.742;4.226;2023-07-08T16:29:19;33.50;99.90
20714;DHT22;10518;50.742;4.226;2023-07-08T16:31:46;33.90;99.90
20714;DHT22;10518;50.742;4.226;2023-07-08T16:34:13;33.90;99.90